createdAt,value
2023-07-24T00:00:00.157Z,49.49
2023-07-24T00:02:27.259Z,49.46
2023-07-24T00:04:54.080Z,49.36
2023-07-24T00:07:20.858Z,49.63
2023-07-24T00:09:47.614Z,49.69
2023-07-24T00:12:14.498Z,49.98
2023-07-24T00:14:41.209Z,50.12
2023-07-24T00:17:08.194Z,50.41
2023-07-24T00:19:34.972Z,50.89
2023-07-24T00:22:01.787Z,50.55
2023-07-24T00:24:28.557Z,50.40
2023-07-24T00:26:55.428Z,50.85
2023-07-24T00:29:22.214Z,50.93
2023-07-24T00:31:48.937Z,50.68
2023-07-24T00:34:15.760Z,51.11
2023-07-24T00:36:42.508Z,51.12
2023-07-24T00:39:09.200Z,51.10
2023-07-24T00:41:35.955Z,51.01
2023-07-24T00:44:02.719Z,50.84
2023-07-24T00:46:33.895Z,51.19
2023-07-24T00:49:02.185Z,51.49
2023-07-24T00:51:31.416Z,51.28
2023-07-24T00:53:59.190Z,51.52
2023-07-24T00:56:25.937Z,51.86
2023-07-24T00:58:56.803Z,52.03
2023-07-24T01:01:23.699Z,52.24
2023-07-24T01:03:51.115Z,52.24
2023-07-24T01:06:17.854Z,52.34
2023-07-24T01:08:44.597Z,52.33
2023-07-24T01:11:17.371Z,52.67
2023-07-24T01:13:46.319Z,54.00
2023-07-24T01:16:19.815Z,53.23
2023-07-24T01:18:46.902Z,52.92
2023-07-24T01:21:15.049Z,53.02
2023-07-24T01:24:07.671Z,54.01
2023-07-24T01:26:34.443Z,53.29
2023-07-24T01:29:01.207Z,53.98
2023-07-24T01:31:28.329Z,54.19
2023-07-24T01:33:55.108Z,54.54
2023-07-24T01:36:21.986Z,54.67
2023-07-24T01:38:50.788Z,54.65
2023-07-24T01:41:18.004Z,54.58
2023-07-24T01:43:44.769Z,54.66
2023-07-24T01:46:11.724Z,54.74
2023-07-24T01:48:38.491Z,54.49
2023-07-24T01:51:05.281Z,54.25
2023-07-24T01:53:32.059Z,54.40
2023-07-24T01:55:59.762Z,54.67
2023-07-24T01:58:26.560Z,54.50
2023-07-24T02:00:56.577Z,54.76
2023-07-24T02:03:23.407Z,54.45
2023-07-24T02:05:51.880Z,54.42
2023-07-24T02:08:18.904Z,54.36
2023-07-24T02:10:49.824Z,54.62
2023-07-24T02:13:16.563Z,54.53
2023-07-24T02:15:49.198Z,54.53
2023-07-24T02:18:16.021Z,54.22
2023-07-24T02:20:42.813Z,54.21
2023-07-24T02:23:10.074Z,54.09
2023-07-24T02:25:37.030Z,54.44
2023-07-24T02:28:03.821Z,54.50
2023-07-24T02:30:30.777Z,54.45
2023-07-24T02:32:58.235Z,54.33
2023-07-24T02:35:25.126Z,54.44
2023-07-24T02:37:51.847Z,54.78
2023-07-24T02:40:18.646Z,54.66
2023-07-24T02:42:45.408Z,54.96
2023-07-24T02:45:13.032Z,54.72
2023-07-24T02:47:39.817Z,54.80
2023-07-24T02:50:06.945Z,54.59
2023-07-24T02:52:33.725Z,55.15
2023-07-24T02:55:00.538Z,55.01
2023-07-24T02:57:27.278Z,55.20
2023-07-24T02:59:54.181Z,55.12
2023-07-24T03:02:21.104Z,55.32
2023-07-24T03:04:47.855Z,55.48
2023-07-24T03:07:14.627Z,55.06
2023-07-24T03:09:41.447Z,55.26
2023-07-24T03:12:08.342Z,55.28
2023-07-24T03:14:35.047Z,55.53
2023-07-24T03:17:03.438Z,55.58
2023-07-24T03:19:30.544Z,55.61
2023-07-24T03:21:57.272Z,56.03
2023-07-24T03:24:24.097Z,56.14
2023-07-24T03:26:50.934Z,56.47
2023-07-24T03:29:17.660Z,57.14
2023-07-24T03:31:44.471Z,57.13
2023-07-24T03:34:11.256Z,57.51
2023-07-24T03:36:42.285Z,57.28
2023-07-24T03:39:12.813Z,57.63
2023-07-24T03:41:40.294Z,57.41
2023-07-24T03:44:07.016Z,57.49
2023-07-24T03:46:34.140Z,57.55
2023-07-24T03:49:00.978Z,57.69
2023-07-24T03:51:28.055Z,57.56
2023-07-24T03:53:55.245Z,57.46
2023-07-24T03:56:22.035Z,57.46
2023-07-24T03:58:48.834Z,57.08
2023-07-24T04:01:15.697Z,57.35
2023-07-24T04:03:42.445Z,57.73
2023-07-24T04:06:09.204Z,57.78
2023-07-24T04:08:35.947Z,57.74
2023-07-24T04:11:02.810Z,58.15
2023-07-24T04:13:29.798Z,57.77
2023-07-24T04:15:58.547Z,58.20
2023-07-24T04:18:25.317Z,58.28
2023-07-24T04:20:52.114Z,58.38
2023-07-24T04:23:18.908Z,58.64
2023-07-24T04:25:45.710Z,58.74
2023-07-24T04:28:12.550Z,58.63
2023-07-24T04:30:39.579Z,58.77
2023-07-24T04:33:06.541Z,58.62
2023-07-24T04:35:33.405Z,58.46
2023-07-24T04:38:00.103Z,58.80
2023-07-24T04:40:26.876Z,58.82
2023-07-24T04:42:53.765Z,58.90
2023-07-24T04:45:23.759Z,58.42
2023-07-24T04:47:51.082Z,58.22
2023-07-24T04:50:17.904Z,58.54
2023-07-24T04:52:44.860Z,58.52
2023-07-24T04:55:11.868Z,58.67
2023-07-24T04:57:38.666Z,58.80
2023-07-24T05:00:06.286Z,58.84
2023-07-24T05:02:32.989Z,58.97
2023-07-24T05:04:59.739Z,58.75
2023-07-24T05:07:26.703Z,59.07
2023-07-24T05:09:53.442Z,59.20
2023-07-24T05:12:20.399Z,59.34
2023-07-24T05:14:47.084Z,59.17
2023-07-24T05:17:13.910Z,58.62
2023-07-24T05:19:40.745Z,58.28
2023-07-24T05:22:07.507Z,57.77
2023-07-24T05:24:34.565Z,57.70
2023-07-24T05:27:01.385Z,58.14
2023-07-24T05:29:28.113Z,57.99
2023-07-24T05:31:55.140Z,57.98
2023-07-24T05:34:22.194Z,57.62
2023-07-24T05:36:48.948Z,57.74
2023-07-24T05:39:15.723Z,57.97
2023-07-24T05:41:42.508Z,58.04
2023-07-24T05:44:09.322Z,58.00
2023-07-24T05:46:36.132Z,58.42
2023-07-24T05:49:03.001Z,58.42
2023-07-24T05:51:29.854Z,58.92
2023-07-24T05:53:56.613Z,58.92
2023-07-24T05:56:23.414Z,58.71
2023-07-24T05:58:50.926Z,58.64
2023-07-24T06:01:17.689Z,58.43
2023-07-24T06:03:44.620Z,57.96
2023-07-24T06:06:11.446Z,58.40
2023-07-24T06:08:38.176Z,58.59
2023-07-24T06:11:04.935Z,58.81
2023-07-24T06:13:31.686Z,58.81
2023-07-24T06:15:58.552Z,58.81
2023-07-24T06:18:25.408Z,58.79
2023-07-24T06:20:55.630Z,58.67
2023-07-24T06:23:22.442Z,58.62
2023-07-24T06:25:49.285Z,58.71
2023-07-24T06:28:16.068Z,58.66
2023-07-24T06:30:43.012Z,58.41
2023-07-24T06:33:09.777Z,58.36
2023-07-24T06:35:36.793Z,58.65
2023-07-24T06:38:03.576Z,58.97
2023-07-24T06:40:30.339Z,59.15
2023-07-24T06:42:57.083Z,59.11
2023-07-24T06:45:23.929Z,59.15
2023-07-24T06:47:50.729Z,59.33
2023-07-24T06:50:17.435Z,59.47
2023-07-24T06:52:44.140Z,59.31
2023-07-24T06:55:10.956Z,59.49
2023-07-24T06:57:37.654Z,59.60
2023-07-24T07:00:04.568Z,59.72
2023-07-24T07:02:32.305Z,59.79
2023-07-24T07:04:59.118Z,59.86
2023-07-24T07:07:25.956Z,59.71
2023-07-24T07:09:52.704Z,59.80
2023-07-24T07:12:22.024Z,59.98
2023-07-24T07:14:49.036Z,59.97
2023-07-24T07:17:15.862Z,59.68
2023-07-24T07:19:42.626Z,59.79
2023-07-24T07:22:09.437Z,60.10
2023-07-24T07:24:36.229Z,59.95
2023-07-24T07:27:02.985Z,59.96
2023-07-24T07:29:29.689Z,59.97
2023-07-24T07:31:56.415Z,59.88
2023-07-24T07:34:23.198Z,59.59
2023-07-24T07:36:50.012Z,59.59
2023-07-24T07:39:16.796Z,59.79
2023-07-24T07:41:43.569Z,60.08
2023-07-24T07:44:10.297Z,59.90
2023-07-24T07:46:37.056Z,60.00
2023-07-24T07:49:03.828Z,60.00
2023-07-24T07:51:30.757Z,60.19
2023-07-24T07:53:57.515Z,60.08
2023-07-24T07:56:24.258Z,59.99
2023-07-24T07:58:51.058Z,59.94
2023-07-24T08:01:17.994Z,60.23
2023-07-24T08:03:44.887Z,60.93
2023-07-24T08:06:11.672Z,60.99
2023-07-24T08:08:38.453Z,60.79
2023-07-24T08:11:08.582Z,60.88
2023-07-24T08:13:35.802Z,61.28
2023-07-24T08:16:04.217Z,62.37
2023-07-24T08:18:31.747Z,64.87
2023-07-24T08:20:58.602Z,65.70
2023-07-24T08:23:25.345Z,66.66
2023-07-24T08:25:53.841Z,66.97
2023-07-24T08:28:21.080Z,67.38
2023-07-24T08:30:56.685Z,67.94
2023-07-24T08:33:23.570Z,68.86
2023-07-24T08:36:00.460Z,71.40
2023-07-24T08:38:27.681Z,69.88
2023-07-24T08:41:08.917Z,72.64
2023-07-24T08:43:36.975Z,71.24
2023-07-24T08:46:04.927Z,71.10
2023-07-24T08:48:50.117Z,73.75
2023-07-24T08:51:17.440Z,72.04
2023-07-24T08:53:44.978Z,72.17
2023-07-24T08:56:15.867Z,72.60
2023-07-24T08:58:43.022Z,72.82
2023-07-24T09:01:10.235Z,72.99
2023-07-24T09:03:37.354Z,73.08
2023-07-24T09:06:13.621Z,73.22
2023-07-24T09:08:44.546Z,73.75
2023-07-24T09:11:12.273Z,73.41
2023-07-24T09:13:43.206Z,73.68
2023-07-24T09:16:10.868Z,73.74
2023-07-24T09:18:42.171Z,74.19
2023-07-24T09:21:09.731Z,73.93
2023-07-24T09:23:36.565Z,74.51
2023-07-24T09:26:07.401Z,74.59
2023-07-24T09:28:35.025Z,74.83
2023-07-24T09:31:02.085Z,74.15
2023-07-24T09:33:47.428Z,75.42
2023-07-24T09:36:14.314Z,74.28
2023-07-24T09:38:41.849Z,74.55
2023-07-24T09:41:08.864Z,75.07
2023-07-24T09:43:40.542Z,74.80
2023-07-24T09:46:08.902Z,75.08
2023-07-24T09:48:41.626Z,74.33
2023-07-24T09:51:13.239Z,74.32
2023-07-24T09:53:44.790Z,74.15
2023-07-24T09:56:11.817Z,74.37
2023-07-24T09:58:39.802Z,74.79
2023-07-24T10:01:08.729Z,74.69
2023-07-24T10:03:47.697Z,75.06
2023-07-24T10:06:16.381Z,74.07
2023-07-24T10:08:43.833Z,74.04
2023-07-24T10:11:14.689Z,73.72
2023-07-24T10:13:42.176Z,73.38
2023-07-24T10:16:09.259Z,72.13
2023-07-24T10:18:42.481Z,72.73
2023-07-24T10:21:10.415Z,72.92
2023-07-24T10:23:39.027Z,72.90
2023-07-24T10:26:06.728Z,72.88
2023-07-24T10:28:42.359Z,72.65
2023-07-24T10:31:23.919Z,72.75
2023-07-24T10:33:52.219Z,72.57
2023-07-24T10:36:20.788Z,72.37
2023-07-24T10:38:48.508Z,72.21
2023-07-24T10:41:15.600Z,72.36
2023-07-24T10:43:48.841Z,72.24
2023-07-24T10:46:18.331Z,72.47
2023-07-24T10:48:50.191Z,72.57
2023-07-24T10:51:17.110Z,73.24
2023-07-24T10:53:46.964Z,73.79
2023-07-24T10:56:13.757Z,74.26
2023-07-24T10:58:40.540Z,75.09
2023-07-24T11:01:08.401Z,75.71
2023-07-24T11:03:42.785Z,76.72
2023-07-24T11:06:17.061Z,77.12
2023-07-24T11:08:53.153Z,78.15
2023-07-24T11:11:19.908Z,77.44
2023-07-24T11:13:46.622Z,78.16
2023-07-24T11:16:13.464Z,78.38
2023-07-24T11:18:53.856Z,78.43
2023-07-24T11:21:26.201Z,78.35
2023-07-24T11:23:56.980Z,78.76
2023-07-24T11:26:24.977Z,78.63
2023-07-24T11:28:52.610Z,78.71
2023-07-24T11:31:22.636Z,79.01
2023-07-24T11:33:53.484Z,79.20
2023-07-24T11:36:20.330Z,79.12
2023-07-24T11:38:47.559Z,79.31
2023-07-24T11:41:15.241Z,79.12
2023-07-24T11:43:49.897Z,79.03
2023-07-24T11:46:43.146Z,80.12
2023-07-24T11:49:09.916Z,81.21
2023-07-24T11:51:38.174Z,78.70
2023-07-24T11:54:08.235Z,78.84
2023-07-24T11:56:35.052Z,78.61
2023-07-24T11:59:14.663Z,78.35
2023-07-24T12:01:42.115Z,78.10
2023-07-24T12:04:08.965Z,78.17
2023-07-24T12:06:36.865Z,77.89
2023-07-24T12:09:05.855Z,77.06
2023-07-24T12:11:33.507Z,76.25
2023-07-24T12:14:00.351Z,76.18
2023-07-24T12:16:27.134Z,75.95
2023-07-24T12:18:53.908Z,75.79
2023-07-24T12:21:20.609Z,74.68
2023-07-24T12:23:47.359Z,74.62
2023-07-24T12:26:14.161Z,74.47
2023-07-24T12:28:40.885Z,74.40
2023-07-24T12:31:07.851Z,73.71
2023-07-24T12:33:34.717Z,73.79
2023-07-24T12:36:02.721Z,73.49
2023-07-24T12:38:29.583Z,73.32
2023-07-24T12:40:56.347Z,73.65
2023-07-24T12:43:23.052Z,73.99
2023-07-24T12:45:49.814Z,74.03
2023-07-24T12:48:18.557Z,73.17
2023-07-24T12:50:45.302Z,73.05
2023-07-24T12:53:13.055Z,72.73
2023-07-24T12:55:43.684Z,72.54
2023-07-24T12:58:10.447Z,72.48
2023-07-24T13:00:37.178Z,72.17
2023-07-24T13:03:04.185Z,71.85
2023-07-24T13:05:31.963Z,71.60
2023-07-24T13:07:58.828Z,70.50
2023-07-24T13:10:25.732Z,69.83
2023-07-24T13:12:52.474Z,69.10
2023-07-24T13:15:19.289Z,69.04
2023-07-24T13:17:46.036Z,68.31
2023-07-24T13:20:12.970Z,67.83
2023-07-24T13:22:39.738Z,67.19
2023-07-24T13:25:07.584Z,67.22
2023-07-24T13:27:34.373Z,65.92
2023-07-24T13:30:01.105Z,64.93
2023-07-24T13:32:27.825Z,65.10
2023-07-24T13:34:54.646Z,64.31
2023-07-24T13:37:22.516Z,63.83
2023-07-24T13:39:49.289Z,63.69
2023-07-24T13:42:16.016Z,63.03
2023-07-24T13:44:42.744Z,63.50
2023-07-24T13:47:09.460Z,62.89
2023-07-24T13:49:36.198Z,61.94
2023-07-24T13:52:02.950Z,61.93
2023-07-24T13:54:29.677Z,61.50
2023-07-24T13:56:56.483Z,61.34
2023-07-24T13:59:23.348Z,61.12
2023-07-24T14:01:50.272Z,60.78
2023-07-24T14:04:17.117Z,60.36
2023-07-24T14:06:43.878Z,60.70
2023-07-24T14:09:12.915Z,61.00
2023-07-24T14:11:39.629Z,60.75
2023-07-24T14:14:06.449Z,60.58
2023-07-24T14:16:33.336Z,59.95
2023-07-24T14:19:00.149Z,59.37
2023-07-24T14:21:26.957Z,58.81
2023-07-24T14:23:53.779Z,58.91
2023-07-24T14:26:20.637Z,58.80
2023-07-24T14:28:47.450Z,58.53
2023-07-24T14:31:14.230Z,58.33
2023-07-24T14:33:41.151Z,58.29
2023-07-24T14:36:08.126Z,58.23
2023-07-24T14:38:34.898Z,57.39
2023-07-24T14:41:01.687Z,57.55
2023-07-24T14:43:28.729Z,57.48
2023-07-24T14:45:55.617Z,57.01
2023-07-24T14:48:22.598Z,56.63
2023-07-24T14:50:50.497Z,57.07
2023-07-24T14:53:17.256Z,56.74
2023-07-24T14:55:44.280Z,56.93
2023-07-24T14:58:11.100Z,56.98
2023-07-24T15:00:37.890Z,57.37
2023-07-24T15:03:04.761Z,57.31
2023-07-24T15:05:31.649Z,57.52
2023-07-24T15:07:58.581Z,57.24
2023-07-24T15:10:25.275Z,57.06
2023-07-24T15:12:52.166Z,56.92
2023-07-24T15:15:18.924Z,57.09
2023-07-24T15:17:45.761Z,58.34
2023-07-24T15:20:14.323Z,59.63
2023-07-24T15:22:41.597Z,61.47
2023-07-24T15:25:08.703Z,61.66
2023-07-24T15:27:35.594Z,63.74
2023-07-24T15:30:02.412Z,65.60
2023-07-24T15:32:29.718Z,67.48
2023-07-24T15:34:56.697Z,68.77
2023-07-24T15:37:23.453Z,70.74
2023-07-24T15:39:50.275Z,70.77
2023-07-24T15:42:17.059Z,71.56
2023-07-24T15:44:43.860Z,72.56
2023-07-24T15:47:10.787Z,73.29
2023-07-24T15:49:37.640Z,73.72
2023-07-24T15:52:04.889Z,74.84
2023-07-24T15:54:31.783Z,75.92
2023-07-24T15:56:58.509Z,75.57
2023-07-24T15:59:26.376Z,76.01
2023-07-24T16:01:53.283Z,76.75
2023-07-24T16:04:22.545Z,77.07
2023-07-24T16:06:49.453Z,77.45
2023-07-24T16:09:16.288Z,77.59
2023-07-24T16:11:44.870Z,77.40
2023-07-24T16:14:13.770Z,77.64
2023-07-24T16:16:40.556Z,77.18
2023-07-24T16:19:17.313Z,78.40
2023-07-24T16:21:45.618Z,78.30
2023-07-24T16:24:12.799Z,77.88
2023-07-24T16:26:40.039Z,78.09
2023-07-24T16:29:07.088Z,78.15
2023-07-24T16:31:36.149Z,78.65
2023-07-24T16:34:03.677Z,78.33
2023-07-24T16:36:36.415Z,79.00
2023-07-24T16:39:05.233Z,79.42
2023-07-24T16:41:33.331Z,79.33
2023-07-24T16:44:02.063Z,79.78
2023-07-24T16:46:30.576Z,80.31
2023-07-24T16:48:57.312Z,80.23
2023-07-24T16:51:24.052Z,79.54
2023-07-24T16:53:50.789Z,80.43
2023-07-24T16:56:17.684Z,80.92
2023-07-24T16:58:44.762Z,80.85
2023-07-24T17:01:11.693Z,81.08
2023-07-24T17:03:38.493Z,81.55
2023-07-24T17:06:05.327Z,81.16
2023-07-24T17:08:32.404Z,81.01
2023-07-24T17:10:59.268Z,81.02
2023-07-24T17:13:26.297Z,80.20
2023-07-24T17:15:53.129Z,78.64
2023-07-24T17:18:19.947Z,77.51
2023-07-24T17:20:50.221Z,77.64
2023-07-24T17:23:17.009Z,77.96
2023-07-24T17:25:44.186Z,78.12
2023-07-24T17:28:11.065Z,78.40
2023-07-24T17:30:38.240Z,78.12
2023-07-24T17:33:05.072Z,78.08
2023-07-24T17:35:31.943Z,77.66
2023-07-24T17:37:58.747Z,78.14
2023-07-24T17:40:25.699Z,78.63
2023-07-24T17:42:52.583Z,79.03
2023-07-24T17:45:19.639Z,78.73
2023-07-24T17:47:46.553Z,77.98
2023-07-24T17:50:13.342Z,78.60
2023-07-24T17:52:40.045Z,78.72
2023-07-24T17:55:07.024Z,78.15
2023-07-24T17:57:34.195Z,77.91
2023-07-24T18:00:01.036Z,77.67
2023-07-24T18:02:28.015Z,76.88
2023-07-24T18:04:54.797Z,77.07
2023-07-24T18:07:21.529Z,77.19
2023-07-24T18:09:48.302Z,77.12
2023-07-24T18:12:15.570Z,77.29
2023-07-24T18:14:42.393Z,76.93
2023-07-24T18:17:09.159Z,76.29
2023-07-24T18:19:35.891Z,76.32
2023-07-24T18:22:02.607Z,76.56
2023-07-24T18:24:29.348Z,75.97
2023-07-24T18:26:56.468Z,75.62
2023-07-24T18:29:23.182Z,74.93
2023-07-24T18:31:50.088Z,74.82
2023-07-24T18:34:17.001Z,74.64
2023-07-24T18:36:43.858Z,74.81
2023-07-24T18:39:10.592Z,74.50
2023-07-24T18:41:37.426Z,74.49
2023-07-24T18:44:04.133Z,74.49
2023-07-24T18:46:30.960Z,74.40
2023-07-24T18:48:57.798Z,74.33
2023-07-24T18:51:24.529Z,73.89
2023-07-24T18:53:52.828Z,74.05
2023-07-24T18:56:19.845Z,73.68
2023-07-24T18:58:49.666Z,73.58
2023-07-24T19:01:16.592Z,73.57
2023-07-24T19:03:44.401Z,73.47
2023-07-24T19:06:11.346Z,73.24
2023-07-24T19:08:38.138Z,72.92
2023-07-24T19:11:05.132Z,72.94
2023-07-24T19:13:36.473Z,72.92
2023-07-24T19:16:04.205Z,72.85
2023-07-24T19:18:31.213Z,72.84
2023-07-24T19:20:58.103Z,72.54
2023-07-24T19:23:24.940Z,72.45
2023-07-24T19:25:51.828Z,72.54
2023-07-24T19:28:18.648Z,72.73
2023-07-24T19:30:52.483Z,72.45
2023-07-24T19:33:19.386Z,72.36
2023-07-24T19:35:46.166Z,72.49
2023-07-24T19:38:13.111Z,72.36
2023-07-24T19:40:40.354Z,72.34
2023-07-24T19:43:07.120Z,72.29
2023-07-24T19:45:39.352Z,72.48
2023-07-24T19:48:06.530Z,72.68
2023-07-24T19:50:33.359Z,72.83
2023-07-24T19:53:00.136Z,73.09
2023-07-24T19:55:26.837Z,73.17
2023-07-24T19:57:53.598Z,73.18
2023-07-24T20:00:20.706Z,73.17
2023-07-24T20:02:48.072Z,73.27
2023-07-24T20:05:14.942Z,73.56
2023-07-24T20:07:41.684Z,73.52
2023-07-24T20:10:08.648Z,73.50
2023-07-24T20:12:35.494Z,73.69
2023-07-24T20:15:02.596Z,73.31
2023-07-24T20:17:29.436Z,73.42
2023-07-24T20:19:56.141Z,73.38
2023-07-24T20:22:22.879Z,73.33
2023-07-24T20:24:49.705Z,73.48
2023-07-24T20:27:16.518Z,73.31
2023-07-24T20:29:43.283Z,73.52
2023-07-24T20:32:10.215Z,73.54
2023-07-24T20:34:37.079Z,73.97
2023-07-24T20:37:03.988Z,73.96
2023-07-24T20:39:30.799Z,73.95
2023-07-24T20:41:57.555Z,73.67
2023-07-24T20:44:24.244Z,73.35
2023-07-24T20:46:51.016Z,73.59
2023-07-24T20:49:17.729Z,73.75
2023-07-24T20:51:44.455Z,73.71
2023-07-24T20:54:11.212Z,73.75
2023-07-24T20:56:38.237Z,73.81
2023-07-24T20:59:05.013Z,74.13
2023-07-24T21:01:32.034Z,73.87
2023-07-24T21:03:58.880Z,73.59
2023-07-24T21:06:25.692Z,73.67
2023-07-24T21:08:52.495Z,73.58
2023-07-24T21:11:19.399Z,73.77
2023-07-24T21:13:46.136Z,73.87
2023-07-24T21:16:12.885Z,73.70
2023-07-24T21:18:39.682Z,73.79
2023-07-24T21:21:08.504Z,73.70
2023-07-24T21:23:35.525Z,73.80
2023-07-24T21:26:02.422Z,73.36
2023-07-24T21:28:29.264Z,73.56
2023-07-24T21:30:56.160Z,73.48
2023-07-24T21:33:22.994Z,73.29
2023-07-24T21:36:02.798Z,73.12
2023-07-24T21:38:29.855Z,73.22
2023-07-24T21:40:56.765Z,73.40
2023-07-24T21:43:23.827Z,73.26
2023-07-24T21:45:52.643Z,73.19
2023-07-24T21:48:19.385Z,73.50
2023-07-24T21:50:52.281Z,73.10
2023-07-24T21:53:19.130Z,72.99
2023-07-24T21:55:45.941Z,73.33
2023-07-24T21:58:12.781Z,73.28
2023-07-24T22:00:39.654Z,73.30
2023-07-24T22:03:06.565Z,73.42
2023-07-24T22:05:33.499Z,73.46
2023-07-24T22:08:00.316Z,73.68
2023-07-24T22:10:28.221Z,73.34
2023-07-24T22:12:55.064Z,73.49
2023-07-24T22:15:21.813Z,73.52
2023-07-24T22:17:48.608Z,73.34
2023-07-24T22:20:26.961Z,73.53
2023-07-24T22:22:57.612Z,73.68
2023-07-24T22:25:24.633Z,73.59
2023-07-24T22:27:51.342Z,73.80
2023-07-24T22:30:18.103Z,73.80
2023-07-24T22:32:44.983Z,73.70
2023-07-24T22:35:11.808Z,73.80
2023-07-24T22:37:38.583Z,73.82
2023-07-24T22:40:06.005Z,73.75
2023-07-24T22:42:32.920Z,73.67
2023-07-24T22:44:59.700Z,73.48
2023-07-24T22:47:26.587Z,73.46
2023-07-24T22:49:53.435Z,73.62
2023-07-24T22:52:20.300Z,73.37
2023-07-24T22:54:47.009Z,73.33
2023-07-24T22:57:13.728Z,73.43
2023-07-24T22:59:40.484Z,73.17
2023-07-24T23:02:07.285Z,72.98
2023-07-24T23:04:34.005Z,73.19
2023-07-24T23:07:00.847Z,73.07
2023-07-24T23:09:46.391Z,73.60
2023-07-24T23:13:27.918Z,73.84
2023-07-24T23:16:35.117Z,73.50
2023-07-24T23:19:20.510Z,73.88
2023-07-24T23:21:47.331Z,73.72
2023-07-24T23:24:14.193Z,74.04
2023-07-24T23:26:41.035Z,73.98
2023-07-24T23:29:07.929Z,73.64
2023-07-24T23:31:34.724Z,73.99
2023-07-24T23:34:01.588Z,74.02
2023-07-24T23:36:28.495Z,73.81
2023-07-24T23:38:55.360Z,73.48
2023-07-24T23:41:22.165Z,73.40
2023-07-24T23:43:48.916Z,73.37
2023-07-24T23:46:16.580Z,72.90
2023-07-24T23:48:44.164Z,72.70
2023-07-24T23:51:21.899Z,72.62
2023-07-24T23:53:49.236Z,72.55
2023-07-24T23:56:16.261Z,72.70
2023-07-24T23:58:43.047Z,72.65
